sensor_id;sensor_type;location;lat;lon;timestamp;pressure;altitude;pressure_sealevel;temperature;humidity
8697;BME280;4385;48.848;8.924;2023-11-19T00:00:15;97301.72;;;18.22;100.00
8697;BME280;4385;48.848;8.924;2023-11-19T00:02:41;97275.38;;;18.21;100.00
8697;BME280;4385;48.848;8.924;2023-11-19T00:05:07;97264.34;;;18.21;100.00
8697;BME280;4385;48.848;8.924;2023-11-19T00:07:39;97273.72;;;18.20;100.00
8697;BME280;4385;48.848;8.924;2023-11-19T00:10:12;97261.84;;;18.19;100.00
8697;BME280;4385;48.848;8.924;2023-11-19T00:12:41;97263.59;;;18.17;100.00
8697;BME280;4385;48.848;8.924;2023-11-19T00:15:07;97252.56;;;18.15;100.00
8697;BME280;4385;48.848;8.924;2023-11-19T00:17:44;97248.31;;;18.15;100.00
8697;BME280;4385;48.848;8.924;2023-11-19T00:20:14;97248.34;;;18.14;100.00
8697;BME280;4385;48.848;8.924;2023-11-19T00:22:40;97249.25;;;18.13;100.00
8697;BME280;4385;48.848;8.924;2023-11-19T00:25:07;97245.00;;;18.12;100.00
8697;BME280;4385;48.848;8.924;2023-11-19T00:27:32;97241.59;;;18.13;100.00
8697;BME280;4385;48.848;8.924;2023-11-19T00:29:57;97235.66;;;18.12;100.00
8697;BME280;4385;48.848;8.924;2023-11-19T00:32:23;97227.16;;;18.12;100.00
8697;BME280;4385;48.848;8.924;2023-11-19T00:34:49;97240.75;;;18.11;100.00
8697;BME280;4385;48.848;8.924;2023-11-19T00:37:14;97239.94;;;18.08;100.00
8697;BME280;4385;48.848;8.924;2023-11-19T00:39:40;97233.19;;;18.07;100.00
8697;BME280;4385;48.848;8.924;2023-11-19T00:42:06;97238.28;;;18.07;100.00
8697;BME280;4385;48.848;8.924;2023-11-19T00:44:31;97234.91;;;18.05;100.00
8697;BME280;4385;48.848;8.924;2023-11-19T00:46:56;97222.25;;;18.02;100.00
8697;BME280;4385;48.848;8.924;2023-11-19T00:49:21;97215.47;;;18.01;100.00
8697;BME280;4385;48.848;8.924;2023-11-19T00:51:47;97225.69;;;18.01;100.00
8697;BME280;4385;48.848;8.924;2023-11-19T00:54:12;97220.53;;;18.03;100.00
8697;BME280;4385;48.848;8.924;2023-11-19T00:56:37;97219.63;;;18.05;100.00
8697;BME280;4385;48.848;8.924;2023-11-19T00:59:02;97220.47;;;18.06;100.00
8697;BME280;4385;48.848;8.924;2023-11-19T01:01:29;97220.47;;;18.06;100.00
8697;BME280;4385;48.848;8.924;2023-11-19T01:03:55;97220.53;;;18.03;100.00
8697;BME280;4385;48.848;8.924;2023-11-19T01:06:29;97211.28;;;18.00;100.00
8697;BME280;4385;48.848;8.924;2023-11-19T01:08:54;97216.41;;;17.99;100.00
8697;BME280;4385;48.848;8.924;2023-11-19T01:11:22;97213.03;;;17.97;100.00
8697;BME280;4385;48.848;8.924;2023-11-19T01:13:48;97210.53;;;17.95;100.00
8697;BME280;4385;48.848;8.924;2023-11-19T01:16:13;97206.31;;;17.94;100.00
8697;BME280;4385;48.848;8.924;2023-11-19T01:18:38;97204.63;;;17.93;100.00
8697;BME280;4385;48.848;8.924;2023-11-19T01:21:04;97205.47;;;17.93;100.00
8697;BME280;4385;48.848;8.924;2023-11-19T01:23:30;97208.88;;;17.94;100.00
8697;BME280;4385;48.848;8.924;2023-11-19T01:25:55;97207.13;;;17.94;100.00
8697;BME280;4385;48.848;8.924;2023-11-19T01:28:20;97211.41;;;17.94;100.00
8697;BME280;4385;48.848;8.924;2023-11-19T01:30:45;97214.78;;;17.94;100.00
8697;BME280;4385;48.848;8.924;2023-11-19T01:33:11;97208.88;;;17.94;100.00
8697;BME280;4385;48.848;8.924;2023-11-19T01:35:36;97199.53;;;17.93;100.00
8697;BME280;4385;48.848;8.924;2023-11-19T01:38:01;97207.19;;;17.93;100.00
8697;BME280;4385;48.848;8.924;2023-11-19T01:40:26;97212.25;;;17.94;100.00
8697;BME280;4385;48.848;8.924;2023-11-19T01:42:52;97213.09;;;17.95;100.00
8697;BME280;4385;48.848;8.924;2023-11-19T01:45:30;97207.97;;;17.95;100.00
8697;BME280;4385;48.848;8.924;2023-11-19T01:47:57;97203.78;;;17.94;100.00
8697;BME280;4385;48.848;8.924;2023-11-19T01:50:23;97208.84;;;17.95;100.00
8697;BME280;4385;48.848;8.924;2023-11-19T01:52:52;97204.63;;;17.93;100.00
8697;BME280;4385;48.848;8.924;2023-11-19T01:55:19;97199.56;;;17.91;100.00
8697;BME280;4385;48.848;8.924;2023-11-19T01:57:46;97209.81;;;17.90;100.00
8697;BME280;4385;48.848;8.924;2023-11-19T02:00:12;97198.81;;;17.88;100.00
8697;BME280;4385;48.848;8.924;2023-11-19T02:02:38;97197.94;;;17.89;100.00
8697;BME280;4385;48.848;8.924;2023-11-19T02:05:05;97201.38;;;17.88;100.00
8697;BME280;4385;48.848;8.924;2023-11-19T02:07:31;97191.19;;;17.88;100.00
8697;BME280;4385;48.848;8.924;2023-11-19T02:09:56;97191.19;;;17.88;100.00
8697;BME280;4385;48.848;8.924;2023-11-19T02:12:24;97192.00;;;17.88;100.00
8697;BME280;4385;48.848;8.924;2023-11-19T02:14:49;97183.53;;;17.88;100.00
8697;BME280;4385;48.848;8.924;2023-11-19T02:17:28;97183.56;;;17.86;100.00
8697;BME280;4385;48.848;8.924;2023-11-19T02:19:53;97179.31;;;17.85;100.00
8697;BME280;4385;48.848;8.924;2023-11-19T02:22:19;97164.06;;;17.83;100.00
8697;BME280;4385;48.848;8.924;2023-11-19T02:24:46;97170.84;;;17.85;100.00
8697;BME280;4385;48.848;8.924;2023-11-19T02:27:18;97173.44;;;17.83;100.00
8697;BME280;4385;48.848;8.924;2023-11-19T02:29:48;97168.34;;;17.83;100.00
8697;BME280;4385;48.848;8.924;2023-11-19T02:32:15;97173.47;;;17.81;100.00
8697;BME280;4385;48.848;8.924;2023-11-19T02:34:41;97175.19;;;17.81;100.00
8697;BME280;4385;48.848;8.924;2023-11-19T02:37:06;97179.44;;;17.80;100.00
8697;BME280;4385;48.848;8.924;2023-11-19T02:39:31;97176.94;;;17.79;100.00
8697;BME280;4385;48.848;8.924;2023-11-19T02:41:57;97176.09;;;17.78;100.00
8697;BME280;4385;48.848;8.924;2023-11-19T02:44:22;97182.88;;;17.79;100.00
8697;BME280;4385;48.848;8.924;2023-11-19T02:46:48;97180.31;;;17.79;100.00
8697;BME280;4385;48.848;8.924;2023-11-19T02:49:14;97176.94;;;17.79;100.00
8697;BME280;4385;48.848;8.924;2023-11-19T02:51:40;97176.09;;;17.78;100.00
8697;BME280;4385;48.848;8.924;2023-11-19T02:54:05;97175.25;;;17.78;100.00
8697;BME280;4385;48.848;8.924;2023-11-19T02:56:31;97172.75;;;17.76;100.00
8697;BME280;4385;48.848;8.924;2023-11-19T02:59:00;97176.16;;;17.77;100.00
8697;BME280;4385;48.848;8.924;2023-11-19T03:01:32;97177.84;;;17.76;100.00
8697;BME280;4385;48.848;8.924;2023-11-19T03:04:00;97171.09;;;17.75;100.00
8697;BME280;4385;48.848;8.924;2023-11-19T03:06:26;97181.28;;;17.75;100.00
8697;BME280;4385;48.848;8.924;2023-11-19T03:08:52;97182.13;;;17.74;100.00
8697;BME280;4385;48.848;8.924;2023-11-19T03:11:17;97188.97;;;17.74;100.00
8697;BME280;4385;48.848;8.924;2023-11-19T03:13:43;97188.13;;;17.73;100.00
8697;BME280;4385;48.848;8.924;2023-11-19T03:16:08;97178.81;;;17.72;100.00
8697;BME280;4385;48.848;8.924;2023-11-19T03:18:33;97175.41;;;17.72;100.00
8697;BME280;4385;48.848;8.924;2023-11-19T03:20:59;97172.88;;;17.72;100.00
8697;BME280;4385;48.848;8.924;2023-11-19T03:23:25;97177.94;;;17.73;100.00
8697;BME280;4385;48.848;8.924;2023-11-19T03:25:53;97171.19;;;17.70;100.00
8697;BME280;4385;48.848;8.924;2023-11-19T03:28:19;97161.03;;;17.69;100.00
8697;BME280;4385;48.848;8.924;2023-11-19T03:30:44;97161.03;;;17.69;100.00
8697;BME280;4385;48.848;8.924;2023-11-19T03:33:09;97165.28;;;17.68;100.00
8697;BME280;4385;48.848;8.924;2023-11-19T03:35:34;97168.66;;;17.70;100.00
8697;BME280;4385;48.848;8.924;2023-11-19T03:38:00;97169.53;;;17.68;100.00
8697;BME280;4385;48.848;8.924;2023-11-19T03:40:26;97166.19;;;17.67;100.00
8697;BME280;4385;48.848;8.924;2023-11-19T03:42:51;97168.72;;;17.67;100.00
8697;BME280;4385;48.848;8.924;2023-11-19T03:45:16;97175.47;;;17.68;100.00
8697;BME280;4385;48.848;8.924;2023-11-19T03:47:42;97168.69;;;17.69;100.00
8697;BME280;4385;48.848;8.924;2023-11-19T03:50:07;97155.94;;;17.69;100.00
8697;BME280;4385;48.848;8.924;2023-11-19T03:52:34;97153.38;;;17.70;100.00
8697;BME280;4385;48.848;8.924;2023-11-19T03:54:59;97148.31;;;17.69;100.00
8697;BME280;4385;48.848;8.924;2023-11-19T03:57:24;97139.84;;;17.67;100.00
8697;BME280;4385;48.848;8.924;2023-11-19T03:59:50;97146.66;;;17.66;100.00
8697;BME280;4385;48.848;8.924;2023-11-19T04:02:16;97143.31;;;17.64;100.00
8697;BME280;4385;48.848;8.924;2023-11-19T04:04:41;97153.50;;;17.64;100.00
8697;BME280;4385;48.848;8.924;2023-11-19T04:07:07;97154.28;;;17.66;100.00
8697;BME280;4385;48.848;8.924;2023-11-19T04:09:32;97150.94;;;17.66;100.00
8697;BME280;4385;48.848;8.924;2023-11-19T04:11:58;97158.50;;;17.69;100.00
8697;BME280;4385;48.848;8.924;2023-11-19T04:14:24;97154.25;;;17.68;100.00
8697;BME280;4385;48.848;8.924;2023-11-19T04:16:49;97155.09;;;17.68;100.00
8697;BME280;4385;48.848;8.924;2023-11-19T04:19:14;97150.81;;;17.70;100.00
8697;BME280;4385;48.848;8.924;2023-11-19T04:21:40;97155.94;;;17.69;100.00
8697;BME280;4385;48.848;8.924;2023-11-19T04:24:06;97160.16;;;17.70;100.00
8697;BME280;4385;48.848;8.924;2023-11-19T04:26:32;97155.97;;;17.67;100.00
8697;BME280;4385;48.848;8.924;2023-11-19T04:28:57;97148.38;;;17.66;100.00
8697;BME280;4385;48.848;8.924;2023-11-19T04:31:23;97146.72;;;17.63;100.00
8697;BME280;4385;48.848;8.924;2023-11-19T04:33:48;97156.13;;;17.61;100.00
8697;BME280;4385;48.848;8.924;2023-11-19T04:36:18;97160.34;;;17.62;100.00
8697;BME280;4385;48.848;8.924;2023-11-19T04:38:44;97153.56;;;17.63;100.00
8697;BME280;4385;48.848;8.924;2023-11-19T04:41:09;97156.94;;;17.62;100.00
8697;BME280;4385;48.848;8.924;2023-11-19T04:43:34;97150.19;;;17.61;100.00
8697;BME280;4385;48.848;8.924;2023-11-19T04:46:00;97151.88;;;17.60;100.00
8697;BME280;4385;48.848;8.924;2023-11-19T04:48:25;97152.75;;;17.61;100.00
8697;BME280;4385;48.848;8.924;2023-11-19T04:50:51;97161.25;;;17.60;100.00
8697;BME280;4385;48.848;8.924;2023-11-19T04:53:17;97161.25;;;17.60;100.00
8697;BME280;4385;48.848;8.924;2023-11-19T04:55:43;97157.84;;;17.61;100.00
8697;BME280;4385;48.848;8.924;2023-11-19T04:58:08;97154.47;;;17.58;100.00
8697;BME280;4385;48.848;8.924;2023-11-19T05:00:33;97165.56;;;17.57;100.00
8697;BME280;4385;48.848;8.924;2023-11-19T05:02:58;97156.25;;;17.56;100.00
8697;BME280;4385;48.848;8.924;2023-11-19T05:05:24;97151.16;;;17.56;100.00
8697;BME280;4385;48.848;8.924;2023-11-19T05:07:49;97157.91;;;17.57;100.00
8697;BME280;4385;48.848;8.924;2023-11-19T05:10:14;97156.22;;;17.58;100.00
8697;BME280;4385;48.848;8.924;2023-11-19T05:12:39;97158.72;;;17.60;100.00
8697;BME280;4385;48.848;8.924;2023-11-19T05:15:06;97168.06;;;17.59;100.00
8697;BME280;4385;48.848;8.924;2023-11-19T05:17:32;97168.06;;;17.59;100.00
8697;BME280;4385;48.848;8.924;2023-11-19T05:19:57;97166.38;;;17.60;100.00
8697;BME280;4385;48.848;8.924;2023-11-19T05:22:22;97172.31;;;17.58;100.00
8697;BME280;4385;48.848;8.924;2023-11-19T05:24:48;97170.66;;;17.57;100.00
8697;BME280;4385;48.848;8.924;2023-11-19T05:27:14;97164.69;;;17.57;100.00
8697;BME280;4385;48.848;8.924;2023-11-19T05:29:39;97164.69;;;17.57;100.00
8697;BME280;4385;48.848;8.924;2023-11-19T05:32:06;97157.03;;;17.58;100.00
8697;BME280;4385;48.848;8.924;2023-11-19T05:34:32;97164.66;;;17.58;100.00
8697;BME280;4385;48.848;8.924;2023-11-19T05:36:57;97158.75;;;17.58;100.00
8697;BME280;4385;48.848;8.924;2023-11-19T05:39:23;97158.75;;;17.58;100.00
8697;BME280;4385;48.848;8.924;2023-11-19T05:41:49;97151.97;;;17.57;100.00
8697;BME280;4385;48.848;8.924;2023-11-19T05:44:14;97146.06;;;17.56;100.00
8697;BME280;4385;48.848;8.924;2023-11-19T05:46:39;97136.63;;;17.58;100.00
8697;BME280;4385;48.848;8.924;2023-11-19T05:49:08;97134.09;;;17.58;100.00
8697;BME280;4385;48.848;8.924;2023-11-19T05:51:36;97130.75;;;17.56;100.00
8697;BME280;4385;48.848;8.924;2023-11-19T05:54:02;97133.31;;;17.56;100.00
8697;BME280;4385;48.848;8.924;2023-11-19T05:56:27;97142.63;;;17.57;100.00
8697;BME280;4385;48.848;8.924;2023-11-19T05:58:57;97144.34;;;17.55;100.00
8697;BME280;4385;48.848;8.924;2023-11-19T06:01:22;97147.72;;;17.57;100.00
8697;BME280;4385;48.848;8.924;2023-11-19T06:03:48;97146.88;;;17.57;100.00
8697;BME280;4385;48.848;8.924;2023-11-19T06:06:15;97142.63;;;17.57;100.00
8697;BME280;4385;48.848;8.924;2023-11-19T06:08:40;97147.72;;;17.57;100.00
8697;BME280;4385;48.848;8.924;2023-11-19T06:11:05;97157.91;;;17.57;100.00
8697;BME280;4385;48.848;8.924;2023-11-19T06:13:31;97166.44;;;17.56;100.00
8697;BME280;4385;48.848;8.924;2023-11-19T06:15:56;97160.50;;;17.56;100.00
8697;BME280;4385;48.848;8.924;2023-11-19T06:18:21;97173.22;;;17.56;100.00
8697;BME280;4385;48.848;8.924;2023-11-19T06:20:48;97168.09;;;17.57;100.00
8697;BME280;4385;48.848;8.924;2023-11-19T06:23:15;97163.00;;;17.57;100.00
8697;BME280;4385;48.848;8.924;2023-11-19T06:25:40;97153.66;;;17.58;100.00
8697;BME280;4385;48.848;8.924;2023-11-19T06:28:05;97157.84;;;17.61;100.00
8697;BME280;4385;48.848;8.924;2023-11-19T06:30:30;97166.28;;;17.63;100.00
8697;BME280;4385;48.848;8.924;2023-11-19T06:32:57;97167.03;;;17.66;100.00
8697;BME280;4385;48.848;8.924;2023-11-19T06:35:23;97158.50;;;17.69;100.00
8697;BME280;4385;48.848;8.924;2023-11-19T06:37:48;97167.72;;;17.73;100.00
8697;BME280;4385;48.848;8.924;2023-11-19T06:40:13;97161.72;;;17.76;100.00
8697;BME280;4385;48.848;8.924;2023-11-19T06:42:40;97172.69;;;17.79;100.00
8697;BME280;4385;48.848;8.924;2023-11-19T06:45:06;97167.50;;;17.82;100.00
8697;BME280;4385;48.848;8.924;2023-11-19T06:47:32;97162.28;;;17.87;100.00
8697;BME280;4385;48.848;8.924;2023-11-19T06:49:58;97163.88;;;17.91;100.00
8697;BME280;4385;48.848;8.924;2023-11-19T06:52:23;97168.09;;;17.94;100.00
8697;BME280;4385;48.848;8.924;2023-11-19T06:54:49;97166.28;;;17.98;100.00
8697;BME280;4385;48.848;8.924;2023-11-19T06:57:14;97159.44;;;18.00;100.00
8697;BME280;4385;48.848;8.924;2023-11-19T06:59:40;97156.84;;;18.01;100.00
8697;BME280;4385;48.848;8.924;2023-11-19T07:02:06;97156.84;;;18.01;100.00
8697;BME280;4385;48.848;8.924;2023-11-19T07:04:31;97162.78;;;18.02;100.00
8697;BME280;4385;48.848;8.924;2023-11-19T07:06:58;97160.19;;;18.03;100.00
8697;BME280;4385;48.848;8.924;2023-11-19T07:09:23;97157.56;;;18.06;100.00
8697;BME280;4385;48.848;8.924;2023-11-19T07:11:49;97163.44;;;18.08;100.00
8697;BME280;4385;48.848;8.924;2023-11-19T07:14:17;97164.25;;;18.12;100.00
8697;BME280;4385;48.848;8.924;2023-11-19T07:16:43;97166.75;;;18.14;100.00
8697;BME280;4385;48.848;8.924;2023-11-19T07:19:08;97181.97;;;18.17;100.00
8697;BME280;4385;48.848;8.924;2023-11-19T07:21:34;97184.50;;;18.18;100.00
8697;BME280;4385;48.848;8.924;2023-11-19T07:23:59;97175.91;;;18.21;100.00
8697;BME280;4385;48.848;8.924;2023-11-19T07:26:25;97179.19;;;18.26;100.00
8697;BME280;4385;48.848;8.924;2023-11-19T07:28:50;97181.66;;;18.29;100.00
8697;BME280;4385;48.848;8.924;2023-11-19T07:31:16;97186.59;;;18.36;100.00
8697;BME280;4385;48.848;8.924;2023-11-19T07:33:44;97192.50;;;18.38;100.00
8697;BME280;4385;48.848;8.924;2023-11-19T07:36:10;97194.13;;;18.40;100.00
8697;BME280;4385;48.848;8.924;2023-11-19T07:38:35;97198.34;;;18.41;100.00
8697;BME280;4385;48.848;8.924;2023-11-19T07:41:01;97193.16;;;18.44;100.00
8697;BME280;4385;48.848;8.924;2023-11-19T07:43:26;97201.63;;;18.47;100.00
8697;BME280;4385;48.848;8.924;2023-11-19T07:45:52;97204.97;;;18.49;100.00
8697;BME280;4385;48.848;8.924;2023-11-19T07:48:17;97216.81;;;18.51;100.00
8697;BME280;4385;48.848;8.924;2023-11-19T07:50:47;97215.88;;;18.54;100.00
8697;BME280;4385;48.848;8.924;2023-11-19T07:53:13;97221.75;;;18.57;100.00
8697;BME280;4385;48.848;8.924;2023-11-19T07:55:38;97214.88;;;18.60;100.00
8697;BME280;4385;48.848;8.924;2023-11-19T07:58:03;97218.22;;;18.62;100.00
8697;BME280;4385;48.848;8.924;2023-11-19T08:00:29;97220.75;;;18.62;100.00
8697;BME280;4385;48.848;8.924;2023-11-19T08:02:54;97214.81;;;18.63;100.00
8697;BME280;4385;48.848;8.924;2023-11-19T08:05:19;97218.13;;;18.65;100.00
8697;BME280;4385;48.848;8.924;2023-11-19T08:07:44;97219.81;;;18.66;100.00
8697;BME280;4385;48.848;8.924;2023-11-19T08:10:10;97208.72;;;18.67;100.00
8697;BME280;4385;48.848;8.924;2023-11-19T08:12:36;97202.72;;;18.68;100.00
8697;BME280;4385;48.848;8.924;2023-11-19T08:15:02;97223.09;;;18.69;100.00
8697;BME280;4385;48.848;8.924;2023-11-19T08:17:29;97223.06;;;18.71;100.00
8697;BME280;4385;48.848;8.924;2023-11-19T08:19:55;97217.16;;;18.71;100.00
8697;BME280;4385;48.848;8.924;2023-11-19T08:22:20;97232.50;;;18.69;100.00
8697;BME280;4385;48.848;8.924;2023-11-19T08:24:46;97239.47;;;18.94;100.00
8697;BME280;4385;48.848;8.924;2023-11-19T08:27:11;97237.69;;;18.96;100.00
8697;BME280;4385;48.848;8.924;2023-11-19T08:29:36;97227.56;;;18.93;100.00
8697;BME280;4385;48.848;8.924;2023-11-19T08:32:01;97229.34;;;18.91;100.00
8697;BME280;4385;48.848;8.924;2023-11-19T08:34:28;97226.81;;;18.91;100.00
8697;BME280;4385;48.848;8.924;2023-11-19T08:36:53;97236.97;;;18.92;100.00
8697;BME280;4385;48.848;8.924;2023-11-19T08:39:19;97229.28;;;18.94;100.00
8697;BME280;4385;48.848;8.924;2023-11-19T08:41:46;97235.16;;;18.96;100.00
8697;BME280;4385;48.848;8.924;2023-11-19T08:44:12;97247.00;;;18.99;100.00
8697;BME280;4385;48.848;8.924;2023-11-19T08:46:37;97235.94;;;18.98;100.00
8697;BME280;4385;48.848;8.924;2023-11-19T08:49:05;97239.31;;;19.00;100.00
8697;BME280;4385;48.848;8.924;2023-11-19T08:51:30;97242.69;;;19.01;100.00
8697;BME280;4385;48.848;8.924;2023-11-19T08:53:55;97232.41;;;19.02;100.00
8697;BME280;4385;48.848;8.924;2023-11-19T08:56:21;97237.50;;;19.04;100.00
8697;BME280;4385;48.848;8.924;2023-11-19T08:58:46;97232.34;;;19.05;100.00
8697;BME280;4385;48.848;8.924;2023-11-19T09:01:11;97234.84;;;19.07;100.00
8697;BME280;4385;48.848;8.924;2023-11-19T09:03:36;97238.22;;;19.09;100.00
8697;BME280;4385;48.848;8.924;2023-11-19T09:06:02;97248.44;;;19.09;100.00
8697;BME280;4385;48.848;8.924;2023-11-19T09:08:27;97232.19;;;19.12;100.00
8697;BME280;4385;48.848;8.924;2023-11-19T09:10:53;97235.53;;;19.14;100.00
8697;BME280;4385;48.848;8.924;2023-11-19T09:13:18;97227.00;;;19.15;100.00
8697;BME280;4385;48.848;8.924;2023-11-19T09:15:43;97236.34;;;19.16;100.00
8697;BME280;4385;48.848;8.924;2023-11-19T09:18:08;97228.69;;;19.16;100.00
8697;BME280;4385;48.848;8.924;2023-11-19T09:20:34;97248.19;;;19.18;100.00
8697;BME280;4385;48.848;8.924;2023-11-19T09:23:03;97231.19;;;19.17;100.00
8697;BME280;4385;48.848;8.924;2023-11-19T09:25:29;97238.81;;;19.19;100.00
8697;BME280;4385;48.848;8.924;2023-11-19T09:27:54;97241.38;;;19.19;100.00
8697;BME280;4385;48.848;8.924;2023-11-19T09:30:19;97243.88;;;19.21;100.00
8697;BME280;4385;48.848;8.924;2023-11-19T09:32:45;97240.44;;;19.22;100.00
8697;BME280;4385;48.848;8.924;2023-11-19T09:35:10;97243.88;;;19.21;100.00
8697;BME280;4385;48.848;8.924;2023-11-19T09:37:38;97248.94;;;19.22;100.00
8697;BME280;4385;48.848;8.924;2023-11-19T09:40:05;97233.56;;;19.24;100.00
8697;BME280;4385;48.848;8.924;2023-11-19T09:42:42;97244.59;;;19.24;100.00
8697;BME280;4385;48.848;8.924;2023-11-19T09:45:15;97229.28;;;19.24;100.00
8697;BME280;4385;48.848;8.924;2023-11-19T09:47:45;97229.19;;;19.27;100.00
8697;BME280;4385;48.848;8.924;2023-11-19T09:50:15;97231.66;;;19.30;100.00
8697;BME280;4385;48.848;8.924;2023-11-19T09:52:41;97237.59;;;19.31;100.00
8697;BME280;4385;48.848;8.924;2023-11-19T09:55:07;97237.56;;;19.33;100.00
8697;BME280;4385;48.848;8.924;2023-11-19T09:57:33;97235.00;;;19.33;100.00
8697;BME280;4385;48.848;8.924;2023-11-19T10:00:02;97223.06;;;19.33;100.00
8697;BME280;4385;48.848;8.924;2023-11-19T10:02:31;97232.44;;;19.33;100.00
8697;BME280;4385;48.848;8.924;2023-11-19T10:04:58;97221.34;;;19.34;100.00
8697;BME280;4385;48.848;8.924;2023-11-19T10:07:24;97217.06;;;19.34;100.00
8697;BME280;4385;48.848;8.924;2023-11-19T10:09:50;97217.06;;;19.34;100.00
8697;BME280;4385;48.848;8.924;2023-11-19T10:12:15;97209.38;;;19.36;100.00
8697;BME280;4385;48.848;8.924;2023-11-19T10:14:42;97198.28;;;19.35;100.00
8697;BME280;4385;48.848;8.924;2023-11-19T10:17:08;97204.25;;;19.36;100.00
8697;BME280;4385;48.848;8.924;2023-11-19T10:19:34;97212.75;;;19.36;100.00
8697;BME280;4385;48.848;8.924;2023-11-19T10:22:06;97199.94;;;19.38;100.00
8697;BME280;4385;48.848;8.924;2023-11-19T10:24:32;97197.44;;;19.36;100.00
8697;BME280;4385;48.848;8.924;2023-11-19T10:27:02;97194.84;;;19.38;100.00
8697;BME280;4385;48.848;8.924;2023-11-19T10:29:29;97206.72;;;19.39;100.00
8697;BME280;4385;48.848;8.924;2023-11-19T10:31:58;97193.97;;;19.37;100.00
8697;BME280;4385;48.848;8.924;2023-11-19T10:34:25;97182.06;;;19.38;100.00
8697;BME280;4385;48.848;8.924;2023-11-19T10:36:51;97193.97;;;19.37;100.00
8697;BME280;4385;48.848;8.924;2023-11-19T10:39:16;97192.31;;;19.36;100.00
8697;BME280;4385;48.848;8.924;2023-11-19T10:41:43;97194.03;;;19.36;100.00
8697;BME280;4385;48.848;8.924;2023-11-19T10:44:08;97194.88;;;19.36;100.00
8697;BME280;4385;48.848;8.924;2023-11-19T10:46:41;97183.81;;;19.36;100.00
8697;BME280;4385;48.848;8.924;2023-11-19T10:49:07;97188.91;;;19.36;100.00
8697;BME280;4385;48.848;8.924;2023-11-19T10:51:33;97196.59;;;19.36;100.00
8697;BME280;4385;48.848;8.924;2023-11-19T10:54:05;97201.78;;;19.33;100.00
8697;BME280;4385;48.848;8.924;2023-11-19T10:56:32;97212.09;;;19.29;100.00
8697;BME280;4385;48.848;8.924;2023-11-19T10:58:59;97201.94;;;19.28;100.00
8697;BME280;4385;48.848;8.924;2023-11-19T11:01:27;97195.97;;;19.27;100.00
8697;BME280;4385;48.848;8.924;2023-11-19T11:03:59;97202.88;;;19.25;100.00
8697;BME280;4385;48.848;8.924;2023-11-19T11:06:33;97206.28;;;19.24;100.00
8697;BME280;4385;48.848;8.924;2023-11-19T11:08:59;97211.41;;;19.24;100.00
8697;BME280;4385;48.848;8.924;2023-11-19T11:11:24;97214.00;;;19.23;100.00
8697;BME280;4385;48.848;8.924;2023-11-19T11:13:52;97211.47;;;19.21;100.00
8697;BME280;4385;48.848;8.924;2023-11-19T11:16:18;97211.47;;;19.21;100.00
8697;BME280;4385;48.848;8.924;2023-11-19T11:18:45;97209.81;;;19.20;100.00
8697;BME280;4385;48.848;8.924;2023-11-19T11:21:14;97203.91;;;19.18;100.00
8697;BME280;4385;48.848;8.924;2023-11-19T11:26:47;97199.69;;;19.17;100.00
8697;BME280;4385;48.848;8.924;2023-11-19T11:29:28;97198.03;;;19.16;100.00
8697;BME280;4385;48.848;8.924;2023-11-19T11:34:43;97178.41;;;19.16;100.00
8697;BME280;4385;48.848;8.924;2023-11-19T11:37:32;97182.63;;;19.19;100.00
8697;BME280;4385;48.848;8.924;2023-11-19T11:39:57;97174.06;;;19.20;100.00
8697;BME280;4385;48.848;8.924;2023-11-19T11:45:05;97170.63;;;19.21;100.00
8697;BME280;4385;48.848;8.924;2023-11-19T11:50:21;97171.41;;;19.23;100.00
8697;BME280;4385;48.848;8.924;2023-11-19T11:55:34;97165.31;;;19.27;100.00
8697;BME280;4385;48.848;8.924;2023-11-19T11:58:01;97178.03;;;19.29;100.00
8697;BME280;4385;48.848;8.924;2023-11-19T12:00:30;97179.75;;;19.30;100.00
8697;BME280;4385;48.848;8.924;2023-11-19T12:02:57;97187.41;;;19.30;100.00
8697;BME280;4385;48.848;8.924;2023-11-19T12:05:24;97184.84;;;19.30;100.00
8697;BME280;4385;48.848;8.924;2023-11-19T12:07:59;97183.91;;;19.33;100.00
8697;BME280;4385;48.848;8.924;2023-11-19T12:10:26;97186.41;;;19.34;100.00
8697;BME280;4385;48.848;8.924;2023-11-19T12:13:01;97191.44;;;19.37;100.00
8697;BME280;4385;48.848;8.924;2023-11-19T12:15:30;97175.97;;;19.42;100.00
8697;BME280;4385;48.848;8.924;2023-11-19T12:17:55;97183.47;;;19.47;100.00
8697;BME280;4385;48.848;8.924;2023-11-19T12:20:25;97178.31;;;19.48;100.00
8697;BME280;4385;48.848;8.924;2023-11-19T12:22:52;97171.44;;;19.50;100.00
8697;BME280;4385;48.848;8.924;2023-11-19T12:25:18;97156.06;;;19.52;100.00
8697;BME280;4385;48.848;8.924;2023-11-19T12:27:47;97148.31;;;19.55;100.00
8697;BME280;4385;48.848;8.924;2023-11-19T12:30:21;97132.81;;;19.60;100.00
8697;BME280;4385;48.848;8.924;2023-11-19T12:32:46;97140.41;;;19.63;100.00
8697;BME280;4385;48.848;8.924;2023-11-19T12:35:12;97133.38;;;19.68;100.00
8697;BME280;4385;48.848;8.924;2023-11-19T12:37:42;97145.19;;;19.72;100.00
8697;BME280;4385;48.848;8.924;2023-11-19T12:40:19;97149.31;;;19.76;100.00
8697;BME280;4385;48.848;8.924;2023-11-19T12:42:48;97148.44;;;19.77;100.00
8697;BME280;4385;48.848;8.924;2023-11-19T12:45:14;97144.16;;;19.78;100.00
8697;BME280;4385;48.848;8.924;2023-11-19T12:47:40;97138.09;;;19.80;100.00
8697;BME280;4385;48.848;8.924;2023-11-19T12:50:07;97136.34;;;19.83;100.00
8697;BME280;4385;48.848;8.924;2023-11-19T12:52:36;97127.75;;;19.84;100.00
8697;BME280;4385;48.848;8.924;2023-11-19T12:55:24;97130.28;;;19.85;100.00
8697;BME280;4385;48.848;8.924;2023-11-19T12:57:50;97142.25;;;19.85;100.00
8697;BME280;4385;48.848;8.924;2023-11-19T13:00:19;97142.28;;;19.83;100.00
8697;BME280;4385;48.848;8.924;2023-11-19T13:02:52;97144.00;;;19.83;100.00
8697;BME280;4385;48.848;8.924;2023-11-19T13:05:33;97142.44;;;19.78;100.00
8697;BME280;4385;48.848;8.924;2023-11-19T13:08:03;97141.66;;;19.76;100.00
8697;BME280;4385;48.848;8.924;2023-11-19T13:10:33;97143.38;;;19.76;100.00
8697;BME280;4385;48.848;8.924;2023-11-19T13:13:08;97133.09;;;19.77;100.00
8697;BME280;4385;48.848;8.924;2023-11-19T13:15:34;97133.19;;;19.74;100.00
8697;BME280;4385;48.848;8.924;2023-11-19T13:18:01;97138.34;;;19.73;100.00
8697;BME280;4385;48.848;8.924;2023-11-19T13:20:27;97139.25;;;19.72;100.00